Time;durP1;ratioP1;P1;durP2;ratioP2;P2;SDS_P1;SDS_P2;PMS_P1;PMS_P2;Temp;Humidity;BMP_temperature;BMP_pressure;BME280_temperature;BME280_humidity;BME280_pressure;Samples;Min_cycle;Max_cycle;Signal;HPM_P1;HPM_P2
2021/07/31 00:00:45;;;;;;;0.00;0.00;;;17.40;99.90;;;;;;4842424;29;20030;-73
2021/07/31 00:03:11;;;;;;;0.30;0.30;;;17.70;99.90;;;;;;4842195;29;20057;-73
2021/07/31 00:05:37;;;;;;;0.22;0.22;;;17.90;99.90;;;;;;4842302;29;20038;-73
2021/07/31 00:08:02;;;;;;;0.08;0.08;;;18.00;99.90;;;;;;4841125;29;20101;-73
2021/07/31 00:10:28;;;;;;;0.10;0.10;;;18.00;99.90;;;;;;4842334;29;20098;-73
2021/07/31 00:12:54;;;;;;;0.10;0.10;;;18.00;99.90;;;;;;4842070;29;20054;-74
2021/07/31 00:15:20;;;;;;;0.05;0.03;;;18.00;99.90;;;;;;4842135;29;20480;-73
2021/07/31 00:17:45;;;;;;;0.10;0.10;;;17.90;99.90;;;;;;4842171;29;20078;-73
2021/07/31 00:20:11;;;;;;;0.00;0.00;;;17.90;99.90;;;;;;4842175;29;20117;-74
2021/07/31 00:22:37;;;;;;;0.00;0.00;;;18.00;99.90;;;;;;4841874;29;20058;-73
2021/07/31 00:25:03;;;;;;;0.00;0.00;;;18.30;99.90;;;;;;4840644;29;20057;-73
2021/07/31 00:27:29;;;;;;;0.38;0.25;;;18.20;99.90;;;;;;4841703;29;20106;-73
2021/07/31 00:29:55;;;;;;;0.10;0.10;;;18.40;99.90;;;;;;4840612;29;20083;-73
2021/07/31 00:32:20;;;;;;;0.38;0.10;;;18.30;99.90;;;;;;4840571;29;20503;-73
2021/07/31 00:34:46;;;;;;;0.00;0.00;;;18.20;99.90;;;;;;4841725;29;20034;-73
2021/07/31 00:37:12;;;;;;;0.08;0.08;;;18.10;99.90;;;;;;4841712;29;20030;-73
2021/07/31 00:39:40;;;;;;;1.00;0.95;;;17.90;99.90;;;;;;4840618;29;20025;-73
2021/07/31 00:42:07;;;;;;;0.68;0.43;;;17.60;99.90;;;;;;4840483;29;20371;-73
2021/07/31 00:44:34;;;;;;;0.55;0.43;;;17.40;99.90;;;;;;4840383;29;20041;-73
2021/07/31 00:47:01;;;;;;;0.00;0.00;;;17.30;99.90;;;;;;4840450;29;20531;-73
2021/07/31 00:49:28;;;;;;;0.22;0.20;;;17.30;99.90;;;;;;4841390;29;20058;-73
2021/07/31 00:51:53;;;;;;;0.10;0.10;;;17.30;99.90;;;;;;4841548;29;20026;-73
2021/07/31 00:54:19;;;;;;;0.22;0.22;;;17.40;99.90;;;;;;4840962;29;20106;-73
2021/07/31 00:56:45;;;;;;;0.80;0.60;;;17.50;99.90;;;;;;4840154;29;20400;-73
2021/07/31 00:59:11;;;;;;;0.03;0.03;;;17.40;99.90;;;;;;4825202;29;20061;-73
2021/07/31 01:01:38;;;;;;;1.13;0.65;;;17.50;99.90;;;;;;4840011;29;20447;-73
2021/07/31 01:04:04;;;;;;;0.40;0.40;;;17.50;99.90;;;;;;4840138;29;20038;-74
2021/07/31 01:06:30;;;;;;;0.20;0.20;;;17.50;99.90;;;;;;4841389;29;20030;-75
2021/07/31 01:08:56;;;;;;;0.00;0.00;;;17.50;99.90;;;;;;4825121;29;20029;-75
2021/07/31 01:11:22;;;;;;;0.00;0.00;;;17.50;99.90;;;;;;4841159;29;20033;-76
2021/07/31 01:13:49;;;;;;;1.77;0.80;;;17.50;99.90;;;;;;4841292;29;20034;-76
2021/07/31 01:16:14;;;;;;;0.20;0.20;;;17.50;99.90;;;;;;4841311;29;20491;-75
2021/07/31 01:18:41;;;;;;;0.20;0.20;;;17.60;99.90;;;;;;4841250;29;20045;-75
2021/07/31 01:21:06;;;;;;;0.00;0.00;;;17.60;99.90;;;;;;4839877;29;20045;-75
2021/07/31 01:23:32;;;;;;;0.03;0.03;;;17.50;99.90;;;;;;4841143;29;20419;-75
2021/07/31 01:25:58;;;;;;;0.25;0.22;;;17.30;99.90;;;;;;4841339;29;20029;-75
2021/07/31 01:28:25;;;;;;;0.20;0.20;;;17.30;99.90;;;;;;4840972;29;20034;-75
2021/07/31 01:30:50;;;;;;;0.20;0.20;;;17.20;99.90;;;;;;4841050;29;20034;-75
2021/07/31 01:33:17;;;;;;;0.28;0.20;;;17.10;99.90;;;;;;4839767;29;20038;-75
2021/07/31 01:35:42;;;;;;;0.55;0.50;;;17.10;99.90;;;;;;4841155;29;20109;-75
2021/07/31 01:38:08;;;;;;;0.10;0.10;;;17.20;99.90;;;;;;4841151;29;20156;-75
2021/07/31 01:40:34;;;;;;;0.00;0.00;;;17.20;99.90;;;;;;4824685;29;20026;-75
2021/07/31 01:42:59;;;;;;;0.85;0.63;;;17.10;99.90;;;;;;4840805;29;20032;-75
2021/07/31 01:45:26;;;;;;;0.63;0.50;;;17.20;99.90;;;;;;4839894;29;20030;-75
2021/07/31 01:47:52;;;;;;;0.80;0.57;;;17.20;99.90;;;;;;4841082;29;20486;-75
2021/07/31 01:50:18;;;;;;;0.32;0.32;;;17.10;99.90;;;;;;4839733;29;20120;-75
2021/07/31 01:52:45;;;;;;;1.30;0.88;;;17.10;99.90;;;;;;4839676;29;20029;-75
2021/07/31 01:55:12;;;;;;;0.10;0.10;;;17.10;99.90;;;;;;4841011;29;20040;-75
2021/07/31 01:57:38;;;;;;;0.63;0.20;;;17.10;99.90;;;;;;4840974;29;20030;-75
2021/07/31 02:00:05;;;;;;;0.45;0.45;;;17.10;99.90;;;;;;4839745;29;20094;-75
2021/07/31 02:02:31;;;;;;;0.00;0.00;;;17.00;99.90;;;;;;4840764;29;20034;-75
2021/07/31 02:04:57;;;;;;;0.22;0.22;;;17.00;99.90;;;;;;4824369;29;20041;-75
2021/07/31 02:07:23;;;;;;;0.20;0.20;;;17.00;99.90;;;;;;4827271;29;20030;-75
2021/07/31 02:09:49;;;;;;;0.00;0.00;;;17.00;99.90;;;;;;4844364;29;20041;-76
2021/07/31 02:12:14;;;;;;;0.55;0.30;;;17.10;99.90;;;;;;4844175;29;20035;-75
2021/07/31 02:14:40;;;;;;;5.05;0.73;;;17.30;99.90;;;;;;4844202;29;20040;-75
2021/07/31 02:17:06;;;;;;;0.30;0.30;;;17.40;99.90;;;;;;4844185;29;20034;-76
2021/07/31 02:19:32;;;;;;;0.00;0.00;;;17.40;99.90;;;;;;4844195;29;20033;-75
2021/07/31 02:21:59;;;;;;;0.57;0.52;;;17.40;99.90;;;;;;4827559;29;20058;-75
2021/07/31 02:24:25;;;;;;;0.57;0.43;;;17.50;99.90;;;;;;4842817;29;20372;-75
2021/07/31 02:26:50;;;;;;;0.00;0.00;;;17.40;99.90;;;;;;4843829;29;20024;-75
2021/07/31 02:29:17;;;;;;;0.63;0.57;;;17.30;99.90;;;;;;4844091;29;20510;-75
2021/07/31 02:31:43;;;;;;;0.40;0.38;;;17.40;99.90;;;;;;4842630;29;20026;-75
2021/07/31 02:34:09;;;;;;;0.00;0.00;;;17.50;99.90;;;;;;4827339;29;20050;-75
2021/07/31 02:36:34;;;;;;;0.00;0.00;;;17.50;99.90;;;;;;4842707;29;20034;-76
2021/07/31 02:39:00;;;;;;;0.08;0.08;;;17.60;99.90;;;;;;4843807;29;20033;-75
2021/07/31 02:41:26;;;;;;;0.00;0.00;;;17.50;99.90;;;;;;4842545;29;20446;-75
2021/07/31 02:43:51;;;;;;;0.10;0.10;;;17.60;99.90;;;;;;4843711;29;20082;-75
2021/07/31 02:46:17;;;;;;;0.00;0.00;;;17.60;99.90;;;;;;4843829;29;20105;-76
2021/07/31 02:48:43;;;;;;;0.00;0.00;;;17.70;99.90;;;;;;4843723;29;20491;-75
2021/07/31 02:51:11;;;;;;;0.00;0.00;;;17.80;99.90;;;;;;4842378;29;20030;-76
2021/07/31 02:53:37;;;;;;;0.00;0.00;;;17.80;99.90;;;;;;4843948;29;20490;-76
2021/07/31 02:56:03;;;;;;;0.00;0.00;;;17.80;99.90;;;;;;4843568;29;20033;-76
2021/07/31 02:58:29;;;;;;;0.10;0.10;;;18.00;99.90;;;;;;4844006;29;20506;-75
2021/07/31 03:00:55;;;;;;;0.00;0.00;;;18.00;99.90;;;;;;4826965;29;20030;-76
2021/07/31 03:03:20;;;;;;;0.00;0.00;;;18.20;99.90;;;;;;4843161;29;20030;-76
2021/07/31 03:05:56;;;;;;;0.00;0.00;;;18.30;99.90;;;;;;4843469;29;20030;-76
2021/07/31 03:08:23;;;;;;;0.00;0.00;;;18.50;99.90;;;;;;4843329;29;20074;-76
2021/07/31 03:10:56;;;;;;;0.00;0.00;;;18.70;99.90;;;;;;4843325;29;20481;-76
2021/07/31 03:13:23;;;;;;;0.00;0.00;;;18.80;99.90;;;;;;4843085;29;20137;-76
2021/07/31 03:15:49;;;;;;;0.00;0.00;;;18.60;99.90;;;;;;4827010;29;20117;-76
2021/07/31 03:18:15;;;;;;;0.00;0.00;;;18.50;99.90;;;;;;4825930;29;20124;-76
2021/07/31 03:20:45;;;;;;;0.00;0.00;;;18.60;99.90;;;;;;4841797;29;20038;-75
2021/07/31 03:23:12;;;;;;;0.00;0.00;;;18.50;99.90;;;;;;4842722;29;20053;-76
2021/07/31 03:25:38;;;;;;;0.00;0.00;;;18.50;99.90;;;;;;4843017;29;20497;-76
2021/07/31 03:28:04;;;;;;;0.03;0.03;;;18.50;99.90;;;;;;4842779;29;20097;-76
2021/07/31 03:30:30;;;;;;;0.00;0.00;;;18.30;99.90;;;;;;4843050;29;20018;-76
2021/07/31 03:32:55;;;;;;;0.57;0.57;;;18.30;99.90;;;;;;4841423;29;20034;-76
2021/07/31 03:35:21;;;;;;;1.35;0.57;;;18.20;99.90;;;;;;4842886;29;20021;-75
2021/07/31 03:37:47;;;;;;;1.00;0.85;;;18.20;99.90;;;;;;4842883;29;20030;-75
2021/07/31 03:40:13;;;;;;;0.08;0.08;;;18.10;99.90;;;;;;4841722;29;20029;-75
2021/07/31 03:42:38;;;;;;;0.10;0.10;;;18.20;99.90;;;;;;4841362;29;20431;-76
2021/07/31 03:45:04;;;;;;;0.00;0.00;;;18.20;99.90;;;;;;4842657;29;20026;-76
2021/07/31 03:47:30;;;;;;;0.00;0.00;;;18.20;99.90;;;;;;4842698;29;20058;-76
2021/07/31 03:49:56;;;;;;;0.00;0.00;;;18.20;99.90;;;;;;4841449;29;20062;-75
2021/07/31 03:52:21;;;;;;;0.00;0.00;;;18.10;99.90;;;;;;4842470;29;20111;-75
2021/07/31 03:54:47;;;;;;;0.00;0.00;;;18.00;99.90;;;;;;4826230;29;20510;-76
2021/07/31 03:57:13;;;;;;;0.00;0.00;;;18.00;99.90;;;;;;4842633;29;20109;-76
2021/07/31 03:59:40;;;;;;;0.00;0.00;;;18.10;99.90;;;;;;4842599;29;20026;-76
2021/07/31 04:02:06;;;;;;;0.00;0.00;;;18.10;99.90;;;;;;4840962;29;20431;-75
2021/07/31 04:04:32;;;;;;;0.10;0.10;;;18.10;99.90;;;;;;4842262;29;20033;-76
2021/07/31 04:06:58;;;;;;;0.00;0.00;;;18.10;99.90;;;;;;4841258;29;20029;-76
2021/07/31 04:09:24;;;;;;;0.10;0.10;;;18.00;99.90;;;;;;4842466;29;20053;-76
2021/07/31 04:11:50;;;;;;;0.00;0.00;;;18.00;99.90;;;;;;4841097;29;20030;-75
2021/07/31 04:14:16;;;;;;;0.00;0.00;;;18.10;99.90;;;;;;4840962;29;20057;-76
2021/07/31 04:16:41;;;;;;;0.00;0.00;;;18.20;99.90;;;;;;4842152;29;20442;-76
2021/07/31 04:19:07;;;;;;;0.00;0.00;;;18.10;99.90;;;;;;4840957;29;20026;-75
2021/07/31 04:21:33;;;;;;;0.00;0.00;;;17.80;99.90;;;;;;4842122;29;20026;-75
2021/07/31 04:23:58;;;;;;;0.10;0.10;;;17.60;99.90;;;;;;4841967;29;20030;-75
2021/07/31 04:26:24;;;;;;;0.20;0.20;;;17.60;99.90;;;;;;4840673;29;20030;-75
2021/07/31 04:28:50;;;;;;;0.00;0.00;;;17.50;99.90;;;;;;4840376;29;20129;-76
2021/07/31 04:31:16;;;;;;;0.10;0.10;;;17.50;99.90;;;;;;4840527;29;20082;-75
2021/07/31 04:33:43;;;;;;;0.00;0.00;;;17.50;99.90;;;;;;4841896;29;20034;-75
2021/07/31 04:36:09;;;;;;;0.00;0.00;;;17.50;99.90;;;;;;4841899;29;20045;-76
2021/07/31 04:38:36;;;;;;;0.10;0.10;;;17.60;99.90;;;;;;4841888;29;20440;-76
2021/07/31 04:41:03;;;;;;;0.00;0.00;;;17.60;99.90;;;;;;4840520;29;20499;-76
2021/07/31 04:43:32;;;;;;;0.00;0.00;;;17.80;99.90;;;;;;4825311;29;20556;-75
2021/07/31 04:45:59;;;;;;;0.00;0.00;;;17.80;99.90;;;;;;4841657;29;20026;-75
2021/07/31 04:48:25;;;;;;;0.00;0.00;;;17.90;99.90;;;;;;4840660;29;20396;-76
2021/07/31 04:50:55;;;;;;;0.10;0.10;;;17.90;99.90;;;;;;4840473;29;20030;-76
2021/07/31 04:53:22;;;;;;;0.00;0.00;;;17.90;99.90;;;;;;4840248;29;20038;-76
2021/07/31 04:55:47;;;;;;;0.00;0.00;;;18.00;99.90;;;;;;4841518;29;20065;-76
2021/07/31 04:58:13;;;;;;;0.00;0.00;;;18.10;99.90;;;;;;4825300;29;20030;-76
2021/07/31 05:00:39;;;;;;;0.00;0.00;;;18.10;99.90;;;;;;4840228;29;20045;-76
2021/07/31 05:03:05;;;;;;;0.00;0.00;;;18.20;99.90;;;;;;4840085;29;20037;-75
2021/07/31 05:05:33;;;;;;;0.00;0.00;;;18.20;99.90;;;;;;4840308;29;20029;-76
2021/07/31 05:07:59;;;;;;;1.88;0.52;;;18.20;99.90;;;;;;4825108;29;20122;-76
2021/07/31 05:10:24;;;;;;;0.00;0.00;;;18.20;99.90;;;;;;4840093;29;20068;-76
2021/07/31 05:12:50;;;;;;;0.15;0.15;;;18.10;99.90;;;;;;4841476;29;20038;-76
2021/07/31 05:15:16;;;;;;;1.73;0.50;;;18.10;99.90;;;;;;4841275;29;20041;-76
2021/07/31 05:17:42;;;;;;;0.10;0.10;;;18.10;99.90;;;;;;4840061;29;20049;-76
2021/07/31 05:20:08;;;;;;;0.00;0.00;;;18.10;99.90;;;;;;4839970;29;20030;-76
2021/07/31 05:22:34;;;;;;;0.08;0.08;;;18.10;99.90;;;;;;4839894;29;20147;-75
2021/07/31 05:25:00;;;;;;;0.00;0.00;;;18.20;99.90;;;;;;4839763;29;20025;-76
2021/07/31 05:27:25;;;;;;;0.10;0.10;;;18.20;99.90;;;;;;4841069;29;20125;-76
2021/07/31 05:29:51;;;;;;;0.00;0.00;;;18.40;99.90;;;;;;4840057;29;20029;-76
2021/07/31 05:32:17;;;;;;;0.05;0.05;;;18.40;99.90;;;;;;4839926;29;20030;-76
2021/07/31 05:34:42;;;;;;;0.05;0.05;;;18.40;99.90;;;;;;4840049;29;20551;-75
2021/07/31 05:37:08;;;;;;;0.10;0.10;;;18.40;99.90;;;;;;4848304;29;20145;-75
2021/07/31 05:39:35;;;;;;;0.00;0.00;;;18.50;99.90;;;;;;4858506;29;20030;-75
2021/07/31 05:42:05;;;;;;;0.00;0.00;;;18.60;99.90;;;;;;4860607;29;20045;-75
2021/07/31 05:44:33;;;;;;;0.00;0.00;;;18.50;99.90;;;;;;4863086;29;20054;-76
2021/07/31 05:46:59;;;;;;;0.10;0.10;;;18.50;99.90;;;;;;4861961;29;20482;-76
2021/07/31 05:49:29;;;;;;;0.08;0.08;;;18.60;99.90;;;;;;4862971;29;20090;-76
2021/07/31 05:51:55;;;;;;;0.00;0.00;;;18.60;99.90;;;;;;4862987;29;20026;-75
2021/07/31 05:54:21;;;;;;;0.10;0.10;;;18.70;99.90;;;;;;4863072;29;20514;-76
2021/07/31 05:56:49;;;;;;;5.72;0.10;;;18.70;99.90;;;;;;4863069;29;20052;-76
2021/07/31 05:59:16;;;;;;;0.00;0.00;;;18.40;99.90;;;;;;4862956;29;20104;-76
2021/07/31 06:01:41;;;;;;;0.80;0.57;;;18.20;99.90;;;;;;4862901;29;20026;-76
2021/07/31 06:04:07;;;;;;;0.00;0.00;;;18.10;99.90;;;;;;4861412;29;20099;-76
2021/07/31 06:06:33;;;;;;;0.00;0.00;;;18.10;99.90;;;;;;4861618;29;20387;-75
2021/07/31 06:08:59;;;;;;;0.05;0.05;;;18.20;99.90;;;;;;4861657;29;20061;-76
2021/07/31 06:11:25;;;;;;;0.17;0.17;;;18.30;99.90;;;;;;4861374;29;20112;-75
2021/07/31 06:13:51;;;;;;;0.08;0.08;;;18.20;99.90;;;;;;4876211;23;20042;-75
2021/07/31 06:16:17;;;;;;;0.10;0.10;;;18.10;99.90;;;;;;4867767;29;20052;-75
2021/07/31 06:18:43;;;;;;;0.00;0.00;;;18.00;99.90;;;;;;4881179;29;20021;-75
2021/07/31 06:21:16;;;;;;;0.00;0.00;;;18.00;99.90;;;;;;4880980;29;20062;-75
2021/07/31 06:23:43;;;;;;;0.00;0.00;;;18.00;99.90;;;;;;4879790;29;20040;-75
2021/07/31 06:26:09;;;;;;;0.10;0.10;;;18.00;99.90;;;;;;4879810;29;20025;-75
2021/07/31 06:28:35;;;;;;;0.00;0.00;;;18.10;99.90;;;;;;4877752;29;20025;-75
2021/07/31 06:31:02;;;;;;;0.00;0.00;;;18.20;99.90;;;;;;4861389;29;20556;-76
2021/07/31 06:33:28;;;;;;;0.00;0.00;;;18.40;99.90;;;;;;4862529;29;20089;-76
2021/07/31 06:35:53;;;;;;;0.00;0.00;;;18.50;99.90;;;;;;4862293;29;20030;-76
2021/07/31 06:38:19;;;;;;;0.10;0.10;;;18.60;99.90;;;;;;4862355;29;20413;-76
2021/07/31 06:40:45;;;;;;;0.00;0.00;;;18.60;99.90;;;;;;4860908;29;20502;-76
2021/07/31 06:43:11;;;;;;;0.60;0.28;;;18.60;99.90;;;;;;4861679;29;20029;-76
2021/07/31 06:45:36;;;;;;;0.10;0.10;;;18.60;99.90;;;;;;4879941;29;20033;-76
2021/07/31 06:48:02;;;;;;;0.00;0.00;;;18.60;99.90;;;;;;4879533;29;20084;-76
2021/07/31 06:50:28;;;;;;;0.00;0.00;;;18.50;99.90;;;;;;4880579;29;20386;-76
2021/07/31 06:52:54;;;;;;;0.00;0.00;;;18.60;99.90;;;;;;4879194;29;20025;-76
2021/07/31 06:55:20;;;;;;;0.00;0.00;;;18.80;99.90;;;;;;4872655;29;20044;-76
2021/07/31 06:57:46;;;;;;;0.10;0.10;;;18.80;99.90;;;;;;4861556;29;20120;-76
2021/07/31 07:00:12;;;;;;;0.10;0.10;;;18.90;99.90;;;;;;4863225;29;20104;-82
2021/07/31 07:02:38;;;;;;;0.00;0.00;;;18.90;99.90;;;;;;4855873;29;20030;-76
2021/07/31 07:05:04;;;;;;;0.00;0.00;;;18.90;99.90;;;;;;4861789;29;20034;-76
2021/07/31 07:07:30;;;;;;;0.00;0.00;;;18.90;99.90;;;;;;4861742;29;20025;-75
2021/07/31 07:09:56;;;;;;;0.00;0.00;;;19.00;99.90;;;;;;4861881;29;20108;-76
2021/07/31 07:12:21;;;;;;;0.10;0.10;;;18.90;99.90;;;;;;4844699;29;20025;-76
2021/07/31 07:14:47;;;;;;;0.00;0.00;;;19.00;99.90;;;;;;4860397;29;20045;-76
2021/07/31 07:17:13;;;;;;;0.00;0.00;;;19.10;99.90;;;;;;4861058;29;20034;-77
2021/07/31 07:19:38;;;;;;;0.00;0.00;;;19.00;99.90;;;;;;4859605;29;20038;-77
2021/07/31 07:22:04;;;;;;;0.00;0.00;;;19.00;99.90;;;;;;4857179;29;20443;-76
2021/07/31 07:24:34;;;;;;;0.00;0.00;;;19.10;99.90;;;;;;4861275;29;20034;-76
2021/07/31 07:26:59;;;;;;;0.80;0.55;;;19.20;99.90;;;;;;4860099;29;20025;-76
2021/07/31 07:29:25;;;;;;;0.00;0.00;;;19.20;99.90;;;;;;4861270;29;20034;-76
2021/07/31 07:31:51;;;;;;;0.00;0.00;;;19.30;99.90;;;;;;4860020;29;20117;-77
2021/07/31 07:34:16;;;;;;;0.10;0.10;;;19.10;99.90;;;;;;4861228;29;20072;-76
2021/07/31 07:36:42;;;;;;;1.65;0.20;;;19.00;99.90;;;;;;4861110;29;20037;-76
2021/07/31 07:39:08;;;;;;;0.03;0.03;;;18.90;99.90;;;;;;4861435;29;20390;-76
2021/07/31 07:41:34;;;;;;;0.50;0.50;;;18.90;99.90;;;;;;4859611;29;20105;-76
2021/07/31 07:43:59;;;;;;;0.22;0.22;;;18.90;99.90;;;;;;4859609;29;20068;-77
2021/07/31 07:46:25;;;;;;;0.22;0.22;;;18.90;99.90;;;;;;4859761;29;20447;-77
2021/07/31 07:48:51;;;;;;;0.00;0.00;;;19.20;99.90;;;;;;4859862;29;20040;-77
2021/07/31 07:51:16;;;;;;;0.25;0.22;;;19.60;99.90;;;;;;4860788;29;20052;-76
2021/07/31 07:53:42;;;;;;;0.30;0.30;;;20.10;99.90;;;;;;4860867;29;20406;-77
2021/07/31 07:56:08;;;;;;;0.40;0.32;;;20.30;99.90;;;;;;4859634;29;20085;-77
2021/07/31 07:58:34;;;;;;;0.20;0.20;;;20.40;99.90;;;;;;4859585;29;20052;-77
2021/07/31 08:01:00;;;;;;;0.10;0.10;;;20.20;99.90;;;;;;4860592;29;20478;-76
2021/07/31 08:03:25;;;;;;;0.38;0.20;;;20.30;99.90;;;;;;4860183;29;20035;-77
2021/07/31 08:05:51;;;;;;;0.30;0.30;;;20.40;99.90;;;;;;4859546;29;20026;-76
2021/07/31 08:08:18;;;;;;;1.23;0.63;;;20.30;99.90;;;;;;4861807;29;20050;-77
2021/07/31 08:10:44;;;;;;;0.20;0.20;;;20.40;99.90;;;;;;4863220;29;20438;-76
2021/07/31 08:13:10;;;;;;;0.50;0.50;;;20.40;99.90;;;;;;4862995;29;20034;-77
2021/07/31 08:15:35;;;;;;;0.00;0.00;;;20.40;99.90;;;;;;4847408;29;20094;-77
2021/07/31 08:18:01;;;;;;;0.10;0.10;;;20.60;99.90;;;;;;4863099;29;20676;-77
2021/07/31 08:20:28;;;;;;;0.57;0.57;;;20.70;99.90;;;;;;4847675;29;20071;-77
2021/07/31 08:22:54;;;;;;;0.10;0.10;;;20.60;99.90;;;;;;4860154;29;20036;-77
2021/07/31 08:25:19;;;;;;;0.10;0.10;;;20.70;99.90;;;;;;4862065;29;20057;-77
2021/07/31 08:27:45;;;;;;;0.10;0.10;;;21.00;99.90;;;;;;4863050;29;20032;-77
2021/07/31 08:30:12;;;;;;;2.63;0.70;;;21.10;99.90;;;;;;4863615;29;20029;-77
2021/07/31 08:32:37;;;;;;;1.08;0.80;;;21.30;99.90;;;;;;4864193;29;20042;-77
2021/07/31 08:35:04;;;;;;;6.10;1.17;;;21.20;99.90;;;;;;4863810;29;20558;-77
2021/07/31 08:37:29;;;;;;;6.85;0.82;;;21.10;99.90;;;;;;4863027;29;20063;-77
2021/07/31 08:39:55;;;;;;;0.05;0.05;;;21.00;99.90;;;;;;4863153;29;20030;-77
2021/07/31 08:42:21;;;;;;;0.90;0.40;;;21.00;99.90;;;;;;4863346;29;20509;-77
2021/07/31 08:44:48;;;;;;;0.98;0.65;;;21.30;99.90;;;;;;4864720;29;20025;-77
2021/07/31 08:47:15;;;;;;;0.00;0.00;;;21.30;99.90;;;;;;4863288;29;20545;-77
2021/07/31 08:49:44;;;;;;;0.00;0.00;;;21.80;99.90;;;;;;4863754;29;20164;-77
2021/07/31 08:52:12;;;;;;;2.22;1.02;;;21.80;99.90;;;;;;4865133;29;20097;-77
2021/07/31 08:54:39;;;;;;;1.08;1.08;;;21.90;99.90;;;;;;4863510;29;20189;-77
2021/07/31 08:57:09;;;;;;;0.00;0.00;;;21.90;99.90;;;;;;4860695;29;20486;-76
2021/07/31 08:59:35;;;;;;;0.40;0.35;;;21.90;99.90;;;;;;4858761;29;20037;-77
2021/07/31 09:02:01;;;;;;;0.00;0.00;;;21.90;99.90;;;;;;4859619;29;20040;-76
2021/07/31 09:04:27;;;;;;;1.85;0.85;;;21.80;99.90;;;;;;4859681;29;20033;-77
2021/07/31 09:06:53;;;;;;;0.17;0.13;;;21.70;99.90;;;;;;4843354;29;20082;-76
2021/07/31 09:09:28;;;;;;;0.00;0.00;;;21.20;99.90;;;;;;4859993;29;20029;-78
2021/07/31 09:12:20;;;;;;;0.25;0.20;;;21.00;99.90;;;;;;4859688;29;20035;-76
2021/07/31 09:14:47;;;;;;;;;;;21.10;99.90;;;;;;4841482;29;20139;-76
2021/07/31 09:17:26;;;;;;;0.10;0.10;;;21.20;99.90;;;;;;4843051;29;19988;-76
2021/07/31 09:19:54;;;;;;;0.00;0.00;;;21.50;99.90;;;;;;4843078;29;20030;-77
2021/07/31 09:22:20;;;;;;;0.20;0.20;;;21.60;99.90;;;;;;4842940;29;20034;-76
2021/07/31 09:25:07;;;;;;;2.35;0.98;;;21.40;99.90;;;;;;4859581;29;20034;-76
2021/07/31 09:27:32;;;;;;;0.88;0.88;;;20.90;99.90;;;;;;4843293;29;20044;-77
2021/07/31 09:30:02;;;;;;;0.10;0.10;;;20.80;99.90;;;;;;4859671;29;20470;-77
2021/07/31 09:32:43;;;;;;;0.00;0.00;;;21.00;99.90;;;;;;4858494;29;20044;-77
2021/07/31 09:35:25;;;;;;;0.30;0.30;;;21.20;99.90;;;;;;4859347;29;20049;-77
2021/07/31 09:37:54;;;;;;;0.10;0.10;;;21.50;99.90;;;;;;4870848;29;20026;-77
2021/07/31 09:40:31;;;;;;;0.10;0.10;;;21.60;99.90;;;;;;4858322;29;20033;-77
2021/07/31 09:43:15;;;;;;;0.00;0.00;;;21.80;99.90;;;;;;4843653;29;20034;-77
2021/07/31 09:45:42;;;;;;;0.00;0.00;;;21.70;99.90;;;;;;4858379;29;20128;-76
2021/07/31 09:48:09;;;;;;;0.10;0.10;;;21.50;99.90;;;;;;4859311;29;20479;-76
2021/07/31 09:50:39;;;;;;;0.00;0.00;;;21.70;99.90;;;;;;4842757;29;20112;-76
2021/07/31 09:53:16;;;;;;;0.30;0.30;;;21.90;99.90;;;;;;4857807;29;20112;-77
2021/07/31 09:55:50;;;;;;;0.00;0.00;;;21.90;99.90;;;;;;4859222;29;20048;-76
2021/07/31 09:58:18;;;;;;;1.08;0.70;;;22.20;99.90;;;;;;4843023;29;20371;-76
2021/07/31 10:00:45;;;;;;;0.10;0.10;;;22.50;99.90;;;;;;4858308;29;20073;-77
2021/07/31 10:03:12;;;;;;;1.67;0.17;;;22.50;99.90;;;;;;4857720;29;20089;-77
2021/07/31 10:05:40;;;;;;;0.00;0.00;;;22.50;99.90;;;;;;4858153;29;20077;-77
2021/07/31 10:08:11;;;;;;;2.42;1.45;;;22.60;99.90;;;;;;4859277;29;20021;-77
2021/07/31 10:10:37;;;;;;;0.35;0.35;;;22.70;99.90;;;;;;4859250;29;20113;-76
2021/07/31 10:13:03;;;;;;;0.00;0.00;;;22.70;99.90;;;;;;4857874;29;20025;-77
2021/07/31 10:15:30;;;;;;;0.10;0.10;;;22.80;99.90;;;;;;4857987;29;20052;-77
2021/07/31 10:17:57;;;;;;;0.10;0.10;;;22.70;99.90;;;;;;4859243;29;20108;-77
2021/07/31 10:20:25;;;;;;;0.00;0.00;;;22.60;99.90;;;;;;4857864;29;20030;-76
2021/07/31 10:22:51;;;;;;;0.10;0.10;;;22.70;99.90;;;;;;4857807;29;20025;-77
2021/07/31 10:25:17;;;;;;;0.10;0.10;;;22.80;99.90;;;;;;4842451;29;20034;-77
2021/07/31 10:27:45;;;;;;;0.05;0.05;;;23.00;99.90;;;;;;4861032;29;20062;-77
2021/07/31 10:30:31;;;;;;;0.10;0.10;;;23.20;99.90;;;;;;4845982;29;20086;-77
2021/07/31 10:32:57;;;;;;;0.05;0.05;;;23.30;99.90;;;;;;4861076;29;20033;-77
2021/07/31 10:35:25;;;;;;;0.00;0.00;;;23.30;99.90;;;;;;4862433;29;20029;-77
2021/07/31 10:37:52;;;;;;;0.10;0.10;;;23.40;99.90;;;;;;4861088;29;20033;-77
2021/07/31 10:40:29;;;;;;;0.47;0.47;;;23.90;99.20;;;;;;4862240;29;20030;-77
2021/07/31 10:42:55;;;;;;;2.35;0.88;;;23.90;96.60;;;;;;4862373;29;20033;-77
2021/07/31 10:45:32;;;;;;;0.00;0.00;;;23.90;96.70;;;;;;4860551;29;20037;-77
2021/07/31 10:48:03;;;;;;;0.35;0.35;;;23.70;96.20;;;;;;4860966;29;20037;-77
2021/07/31 10:50:29;;;;;;;0.03;0.03;;;24.30;95.20;;;;;;4861079;29;20021;-77
2021/07/31 10:52:57;;;;;;;0.08;0.08;;;24.60;93.40;;;;;;4860813;29;20037;-77
2021/07/31 10:55:47;;;;;;;0.70;0.52;;;24.70;92.50;;;;;;4862098;29;20480;-77
2021/07/31 10:58:18;;;;;;;0.00;0.00;;;24.90;90.10;;;;;;4851164;29;20418;-77
2021/07/31 11:00:49;;;;;;;9.27;1.25;;;25.10;90.80;;;;;;4860846;29;20503;-77
2021/07/31 11:03:25;;;;;;;0.82;0.47;;;25.10;88.00;;;;;;4845267;29;20120;-77
2021/07/31 11:06:05;;;;;;;0.00;0.00;;;25.50;87.60;;;;;;4860834;29;20045;-77
2021/07/31 11:08:52;;;;;;;0.00;0.00;;;26.00;85.40;;;;;;4861221;29;20444;-78
2021/07/31 11:11:18;;;;;;;0.60;0.40;;;26.10;81.70;;;;;;4860797;29;20034;-77
2021/07/31 11:13:43;;;;;;;0.20;0.20;;;26.20;78.70;;;;;;4861287;29;20482;-77
2021/07/31 11:16:17;;;;;;;0.15;0.13;;;26.70;78.70;;;;;;4862668;29;20093;-77
2021/07/31 11:18:52;;;;;;;0.00;0.00;;;27.20;77.80;;;;;;4862647;29;20064;-77
2021/07/31 11:21:19;;;;;;;0.00;0.00;;;27.00;73.80;;;;;;4861985;29;20061;-77
2021/07/31 11:24:05;;;;;;;0.10;0.10;;;27.00;73.00;;;;;;4861169;29;20084;-77
2021/07/31 11:26:34;;;;;;;0.00;0.00;;;27.30;70.70;;;;;;4860818;29;20082;-77
2021/07/31 11:29:01;;;;;;;0.17;0.17;;;27.00;69.10;;;;;;4861840;29;20097;-77
2021/07/31 11:31:27;;;;;;;0.00;0.00;;;26.70;72.90;;;;;;4860510;29;20102;-77
2021/07/31 11:34:06;;;;;;;1.10;0.47;;;26.70;70.60;;;;;;4860864;29;20033;-77
2021/07/31 11:36:32;;;;;;;0.00;0.00;;;26.70;68.00;;;;;;4861766;29;20057;-77
2021/07/31 11:39:01;;;;;;;1.45;0.52;;;26.30;70.80;;;;;;4859795;29;20719;-77
2021/07/31 11:41:28;;;;;;;0.00;0.00;;;25.60;70.50;;;;;;4859898;29;20033;-77
2021/07/31 11:43:58;;;;;;;0.08;0.08;;;25.50;73.40;;;;;;4860435;29;20029;-76
2021/07/31 11:46:29;;;;;;;0.00;0.00;;;25.10;73.40;;;;;;4859948;29;20085;-76
2021/07/31 11:48:59;;;;;;;0.32;0.20;;;24.80;74.90;;;;;;4860453;29;20081;-79
2021/07/31 11:51:26;;;;;;;0.10;0.10;;;24.60;76.40;;;;;;4860971;29;20108;-76
2021/07/31 11:53:53;;;;;;;0.10;0.10;;;24.50;76.40;;;;;;4860323;29;20061;-77
2021/07/31 11:56:23;;;;;;;0.10;0.10;;;24.40;75.80;;;;;;4861054;29;20385;-75
2021/07/31 11:58:52;;;;;;;0.30;0.30;;;24.40;74.50;;;;;;4860254;29;20438;-76
2021/07/31 12:01:18;;;;;;;1.38;0.85;;;24.30;77.70;;;;;;4863603;29;20486;-78
2021/07/31 12:03:47;;;;;;;0.00;0.00;;;24.10;81.60;;;;;;4865328;29;20121;-77
2021/07/31 12:06:37;;;;;;;0.10;0.10;;;23.70;83.10;;;;;;4849180;29;20367;-78
2021/07/31 12:09:05;;;;;;;0.00;0.00;;;23.70;82.60;;;;;;4850041;29;20045;-77
2021/07/31 12:11:37;;;;;;;14.52;1.15;;;23.90;80.70;;;;;;4865088;29;20025;-77
2021/07/31 12:14:40;;;;;;;0.20;0.20;;;23.90;79.20;;;;;;4866727;29;20120;-78
2021/07/31 12:17:24;;;;;;;0.00;0.00;;;23.70;79.30;;;;;;4927150;23;20049;-72
2021/07/31 12:19:57;;;;;;;0.03;0.03;;;23.70;80.50;;;;;;4843718;29;20457;-73
2021/07/31 12:22:31;;;;;;;0.00;0.00;;;24.00;81.10;;;;;;4859233;29;20482;-72
2021/07/31 12:25:17;;;;;;;0.00;0.00;;;24.20;78.70;;;;;;4843827;29;20030;-73
2021/07/31 12:27:51;;;;;;;0.00;0.00;;;23.90;77.60;;;;;;4840749;29;20056;-72
2021/07/31 12:30:27;;;;;;;1.02;0.95;;;23.80;79.20;;;;;;4841845;29;20070;-72
2021/07/31 12:32:58;;;;;;;0.20;0.20;;;23.60;79.20;;;;;;4841814;29;20032;-73
2021/07/31 12:35:44;;;;;;;0.27;0.27;;;23.20;80.50;;;;;;4840686;29;20069;-72
2021/07/31 12:38:23;;;;;;;2.45;0.10;;;22.90;81.40;;;;;;4825538;29;20182;-72
2021/07/31 12:41:01;;;;;;;0.10;0.10;;;23.10;81.10;;;;;;4840457;29;20061;-72
2021/07/31 12:43:29;;;;;;;0.05;0.05;;;23.20;81.40;;;;;;4841593;29;20029;-72
2021/07/31 12:45:58;;;;;;;2.72;1.00;;;23.20;80.60;;;;;;4841544;29;20030;-72
2021/07/31 12:48:23;;;;;;;0.00;0.00;;;23.20;81.60;;;;;;4840599;29;20022;-72
2021/07/31 12:50:49;;;;;;;0.20;0.20;;;23.20;82.40;;;;;;4839391;29;20026;-72